Time;durP1;ratioP1;P1;durP2;ratioP2;P2;SDS_P1;SDS_P2;PMS_P1;PMS_P2;Temp;Humidity;BMP_temperature;BMP_pressure;BME280_temperature;BME280_humidity;BME280_pressure;Samples;Min_cycle;Max_cycle;Signal;HPM_P1;HPM_P2
2021/07/30 00:01:21;;;;;;;4.43;3.58;;;23.70;81.00;;;;;;5013699;28;20489;-55
2021/07/30 00:03:47;;;;;;;4.82;3.33;;;23.70;81.10;;;;;;5013226;28;20076;-57
2021/07/30 00:06:13;;;;;;;5.10;3.80;;;23.70;81.30;;;;;;5013281;28;20030;-56
2021/07/30 00:08:38;;;;;;;5.90;3.75;;;23.70;81.30;;;;;;5016195;28;20036;-55
2021/07/30 00:11:04;;;;;;;3.80;3.40;;;23.70;81.40;;;;;;5031403;28;20033;-57
2021/07/30 00:13:30;;;;;;;5.25;3.70;;;23.70;81.60;;;;;;5030291;28;20048;-54
2021/07/30 00:15:55;;;;;;;4.43;3.75;;;23.80;81.90;;;;;;5032430;28;20104;-54
2021/07/30 00:18:21;;;;;;;5.43;3.30;;;23.80;81.60;;;;;;5032496;28;20021;-53
2021/07/30 00:20:47;;;;;;;4.50;3.45;;;23.80;81.60;;;;;;5032518;28;20034;-57
2021/07/30 00:23:12;;;;;;;3.58;3.08;;;23.80;81.50;;;;;;5021074;28;20072;-56
2021/07/30 00:25:38;;;;;;;3.97;3.30;;;23.80;81.60;;;;;;5012637;28;20080;-56
2021/07/30 00:28:04;;;;;;;5.63;3.95;;;23.80;81.70;;;;;;5019945;28;20056;-55
2021/07/30 00:30:30;;;;;;;5.07;3.35;;;23.80;81.60;;;;;;5032652;28;20030;-57
2021/07/30 00:32:56;;;;;;;4.25;3.38;;;23.90;81.80;;;;;;5032144;28;20026;-56
2021/07/30 00:35:22;;;;;;;4.78;3.63;;;23.90;81.80;;;;;;5032248;28;20032;-57
2021/07/30 00:37:47;;;;;;;4.90;3.30;;;23.90;81.80;;;;;;5032326;28;20096;-57
2021/07/30 00:40:13;;;;;;;4.57;3.75;;;23.90;82.00;;;;;;5031881;28;20037;-55
2021/07/30 00:42:52;;;;;;;4.63;3.00;;;23.80;82.10;;;;;;5037681;28;20029;-56
2021/07/30 00:45:21;;;;;;;4.57;3.33;;;23.80;82.10;;;;;;5029617;28;20033;-55
2021/07/30 00:47:48;;;;;;;4.25;3.30;;;23.80;82.20;;;;;;5038076;28;20035;-56
2021/07/30 00:50:16;;;;;;;5.10;3.15;;;23.90;82.10;;;;;;5038841;28;20021;-54
2021/07/30 00:52:42;;;;;;;3.50;3.00;;;23.90;82.10;;;;;;5038896;28;20025;-53
2021/07/30 00:55:11;;;;;;;4.20;3.42;;;23.90;81.90;;;;;;5038509;28;20074;-55
2021/07/30 00:57:38;;;;;;;5.93;3.60;;;23.90;81.80;;;;;;5038033;28;20108;-54
2021/07/30 01:00:07;;;;;;;4.57;3.35;;;23.90;82.80;;;;;;5038792;28;20017;-56
2021/07/30 01:02:35;;;;;;;4.88;3.25;;;24.00;82.20;;;;;;5038233;28;20030;-56
2021/07/30 01:05:01;;;;;;;4.78;3.72;;;24.00;82.30;;;;;;5038581;28;20426;-57
2021/07/30 01:07:27;;;;;;;5.93;4.43;;;24.00;82.20;;;;;;5038573;28;20152;-57
2021/07/30 01:09:53;;;;;;;5.57;4.20;;;24.00;82.00;;;;;;5037830;28;20516;-57
2021/07/30 01:12:20;;;;;;;5.65;4.28;;;24.00;82.10;;;;;;5037394;28;20034;-57
2021/07/30 01:14:46;;;;;;;6.47;4.22;;;24.10;82.20;;;;;;5036527;28;20033;-55
2021/07/30 01:17:12;;;;;;;6.15;4.10;;;24.00;82.20;;;;;;5038047;28;20534;-56
2021/07/30 01:19:41;;;;;;;4.75;3.90;;;24.00;81.90;;;;;;5038565;28;20389;-56
2021/07/30 01:22:23;;;;;;;5.22;4.28;;;24.00;81.90;;;;;;5038345;28;20103;-56
2021/07/30 01:24:52;;;;;;;5.40;4.18;;;24.00;81.60;;;;;;5037774;28;20079;-55
2021/07/30 01:27:21;;;;;;;6.30;4.18;;;23.90;81.50;;;;;;5038320;28;20069;-56
2021/07/30 01:29:48;;;;;;;4.93;3.78;;;23.90;81.30;;;;;;5028952;28;20056;-55
2021/07/30 01:32:16;;;;;;;4.63;3.58;;;23.90;81.10;;;;;;5037542;28;20029;-57
2021/07/30 01:34:44;;;;;;;7.07;4.47;;;23.90;81.00;;;;;;5038400;28;20022;-54
2021/07/30 01:37:11;;;;;;;5.50;4.40;;;23.90;81.00;;;;;;5038209;28;20041;-57
2021/07/30 01:39:37;;;;;;;6.85;4.47;;;23.90;81.00;;;;;;5037714;28;20112;-57
2021/07/30 01:42:03;;;;;;;6.47;4.18;;;23.90;80.80;;;;;;5038637;28;20036;-53
2021/07/30 01:44:29;;;;;;;5.50;4.90;;;23.80;80.60;;;;;;5037579;28;20389;-54
2021/07/30 01:46:55;;;;;;;6.47;4.30;;;23.80;80.90;;;;;;5037989;28;20048;-57
2021/07/30 01:49:20;;;;;;;5.75;4.43;;;23.80;80.90;;;;;;5037107;28;20029;-55
2021/07/30 01:51:46;;;;;;;7.70;4.45;;;23.80;80.90;;;;;;5037416;28;20112;-57
2021/07/30 01:54:14;;;;;;;6.82;4.68;;;23.80;80.90;;;;;;5033447;28;20021;-57
2021/07/30 01:56:42;;;;;;;4.93;3.92;;;23.80;81.00;;;;;;5035043;28;20063;-57
2021/07/30 01:59:08;;;;;;;6.70;4.90;;;23.70;80.70;;;;;;5035573;28;20493;-57
2021/07/30 02:01:34;;;;;;;5.80;4.05;;;23.80;80.50;;;;;;5035612;28;20362;-55
2021/07/30 02:04:00;;;;;;;4.70;4.20;;;23.70;80.60;;;;;;5031846;28;20043;-55
2021/07/30 02:06:26;;;;;;;6.97;4.10;;;23.70;80.50;;;;;;5021236;28;20096;-57
2021/07/30 02:08:51;;;;;;;4.93;3.90;;;23.60;80.20;;;;;;5033865;28;20029;-54
2021/07/30 02:11:17;;;;;;;4.88;3.90;;;23.70;80.20;;;;;;5035303;28;20432;-57
2021/07/30 02:16:27;;;;;;;5.10;3.83;;;23.60;80.10;;;;;;5034297;28;20067;-55
2021/07/30 02:18:52;;;;;;;5.22;4.45;;;23.60;80.30;;;;;;5034790;28;20037;-57
2021/07/30 02:21:18;;;;;;;4.90;4.03;;;23.60;80.30;;;;;;5035029;28;20044;-57
2021/07/30 02:23:45;;;;;;;6.35;4.18;;;23.60;80.40;;;;;;5033600;28;20049;-55
2021/07/30 02:26:10;;;;;;;5.35;3.90;;;23.60;80.30;;;;;;5034761;28;20100;-56
2021/07/30 02:28:36;;;;;;;5.93;3.83;;;23.60;80.80;;;;;;5035173;28;20104;-57
2021/07/30 02:31:02;;;;;;;4.90;3.63;;;23.60;80.10;;;;;;5034572;28;20448;-53
2021/07/30 02:33:27;;;;;;;4.97;3.38;;;23.60;80.10;;;;;;5035065;28;20087;-53
2021/07/30 02:35:53;;;;;;;6.65;3.85;;;23.60;80.00;;;;;;5034322;28;20034;-53
2021/07/30 02:38:19;;;;;;;5.07;4.00;;;23.60;80.10;;;;;;5034451;28;20025;-56
2021/07/30 02:40:44;;;;;;;7.60;3.95;;;23.60;79.90;;;;;;5034554;28;20105;-55
2021/07/30 02:43:10;;;;;;;5.85;4.25;;;23.60;80.00;;;;;;5035044;28;20033;-56
2021/07/30 02:45:36;;;;;;;5.57;3.83;;;23.60;79.80;;;;;;5034857;28;20025;-55
2021/07/30 02:48:01;;;;;;;5.72;4.13;;;23.60;80.00;;;;;;5034678;28;20288;-54
2021/07/30 02:50:27;;;;;;;5.32;3.90;;;23.70;80.00;;;;;;5034512;28;20033;-57
2021/07/30 02:52:52;;;;;;;5.63;4.25;;;23.70;79.90;;;;;;5033416;28;20029;-57
2021/07/30 02:55:18;;;;;;;4.63;3.97;;;23.70;79.90;;;;;;5030272;28;20029;-54
2021/07/30 02:57:45;;;;;;;4.60;4.00;;;23.70;79.70;;;;;;5032133;28;20025;-56
2021/07/30 03:00:11;;;;;;;6.15;3.63;;;23.70;79.60;;;;;;5031329;28;20025;-56
2021/07/30 03:02:37;;;;;;;6.75;3.80;;;23.70;79.70;;;;;;5032660;28;20539;-56
2021/07/30 03:05:03;;;;;;;4.28;3.60;;;23.70;79.40;;;;;;5032257;28;20065;-56
2021/07/30 03:07:28;;;;;;;5.18;4.28;;;23.70;79.10;;;;;;5033047;28;20033;-56
2021/07/30 03:09:54;;;;;;;5.18;3.90;;;23.70;79.00;;;;;;5033968;28;20424;-57
2021/07/30 03:12:20;;;;;;;4.80;4.13;;;23.70;79.00;;;;;;5033716;28;20029;-58
2021/07/30 03:14:46;;;;;;;5.22;3.80;;;23.70;78.80;;;;;;5033342;28;20382;-57
2021/07/30 03:17:11;;;;;;;5.07;4.07;;;23.70;78.80;;;;;;5033328;28;20385;-54
2021/07/30 03:19:37;;;;;;;5.20;4.35;;;23.70;79.20;;;;;;5033218;28;20029;-56
2021/07/30 03:22:03;;;;;;;7.55;4.05;;;23.70;79.10;;;;;;5032172;28;20380;-55
2021/07/30 03:24:29;;;;;;;4.70;4.07;;;23.70;79.00;;;;;;5020386;28;20507;-53
2021/07/30 03:26:54;;;;;;;5.72;4.13;;;23.70;79.00;;;;;;5033906;28;20021;-56
2021/07/30 03:29:21;;;;;;;6.32;4.30;;;23.70;78.90;;;;;;5033569;28;20033;-56
2021/07/30 03:31:47;;;;;;;5.13;4.22;;;23.70;78.90;;;;;;5032853;28;20500;-57
2021/07/30 03:34:17;;;;;;;4.90;4.32;;;23.70;78.90;;;;;;5020075;28;20026;-53
2021/07/30 03:36:44;;;;;;;4.65;4.07;;;23.70;79.10;;;;;;5021153;28;20040;-59
2021/07/30 03:39:10;;;;;;;7.03;4.25;;;23.70;79.10;;;;;;5032879;28;20100;-59
2021/07/30 03:41:37;;;;;;;4.80;4.30;;;23.70;79.20;;;;;;5033193;28;20112;-59
2021/07/30 03:44:03;;;;;;;5.43;4.43;;;23.70;79.00;;;;;;5031818;28;20389;-59
2021/07/30 03:46:28;;;;;;;6.60;4.35;;;23.70;78.80;;;;;;5033006;28;20034;-59
2021/07/30 03:48:54;;;;;;;5.32;4.70;;;23.80;79.00;;;;;;5033480;28;20036;-59
2021/07/30 03:51:19;;;;;;;6.82;4.85;;;23.70;79.00;;;;;;5033466;28;20021;-59
2021/07/30 03:53:45;;;;;;;5.43;4.75;;;23.80;79.00;;;;;;5032237;28;20524;-58
2021/07/30 03:56:15;;;;;;;6.10;4.68;;;23.80;79.00;;;;;;5033296;28;20112;-59
2021/07/30 03:58:41;;;;;;;6.53;4.72;;;23.80;79.00;;;;;;5033041;28;20096;-59
2021/07/30 04:01:08;;;;;;;6.93;4.95;;;23.80;78.90;;;;;;5033388;28;20025;-59
2021/07/30 04:03:34;;;;;;;7.15;4.95;;;23.80;79.00;;;;;;5032870;28;20026;-59
2021/07/30 04:06:03;;;;;;;5.68;4.95;;;23.80;79.20;;;;;;5033501;28;20496;-59
2021/07/30 04:08:29;;;;;;;7.45;5.00;;;23.80;79.10;;;;;;5032771;28;20029;-59
2021/07/30 04:10:54;;;;;;;7.15;5.10;;;23.90;79.20;;;;;;5032791;28;20040;-59
2021/07/30 04:13:20;;;;;;;8.65;5.13;;;23.90;79.20;;;;;;5031965;28;20029;-59
2021/07/30 04:15:46;;;;;;;7.18;5.30;;;23.90;79.20;;;;;;5029852;28;20035;-59
2021/07/30 04:18:11;;;;;;;7.30;5.60;;;23.90;79.30;;;;;;5031315;28;20056;-59
2021/07/30 04:20:40;;;;;;;7.30;5.30;;;23.90;79.20;;;;;;5030777;28;20025;-59
2021/07/30 04:23:06;;;;;;;6.85;5.38;;;23.90;79.50;;;;;;5030934;28;20041;-59
2021/07/30 04:25:32;;;;;;;8.30;6.03;;;23.90;79.50;;;;;;5030844;28;20220;-59
2021/07/30 04:27:58;;;;;;;7.72;5.38;;;23.90;79.60;;;;;;5030253;28;20385;-59
2021/07/30 04:30:23;;;;;;;7.88;5.80;;;24.00;79.40;;;;;;5027132;28;20397;-59
2021/07/30 04:32:52;;;;;;;6.38;5.68;;;24.00;79.60;;;;;;5025072;28;20059;-58
2021/07/30 04:35:17;;;;;;;6.90;5.35;;;24.10;79.60;;;;;;5030956;28;20048;-58
2021/07/30 04:37:43;;;;;;;7.15;5.47;;;24.20;79.70;;;;;;5022519;28;20033;-59
2021/07/30 04:40:09;;;;;;;7.75;5.70;;;24.20;79.70;;;;;;5030485;28;20034;-59
2021/07/30 04:42:35;;;;;;;9.80;6.63;;;24.40;79.70;;;;;;5032366;28;20376;-59
2021/07/30 04:45:00;;;;;;;7.57;5.75;;;24.50;79.50;;;;;;5032674;28;20032;-60
2021/07/30 04:47:26;;;;;;;7.55;6.75;;;24.60;79.10;;;;;;5028260;28;20083;-59
2021/07/30 04:49:51;;;;;;;9.38;6.13;;;24.70;78.90;;;;;;5027801;28;20488;-59
2021/07/30 04:52:17;;;;;;;7.55;6.00;;;25.00;80.00;;;;;;5027330;28;20030;-59
2021/07/30 04:54:43;;;;;;;8.60;6.10;;;25.60;80.40;;;;;;5026784;28;20033;-60
2021/07/30 04:57:09;;;;;;;9.15;8.00;;;26.60;79.00;;;;;;5023932;28;20045;-60
2021/07/30 04:59:35;;;;;;;9.55;7.72;;;27.70;76.90;;;;;;5019287;28;20737;-62
2021/07/30 05:02:01;;;;;;;6.88;6.10;;;28.80;74.50;;;;;;5024013;28;20025;-60
2021/07/30 05:04:27;;;;;;;7.88;6.00;;;29.80;72.10;;;;;;5026630;28;20104;-59
2021/07/30 05:06:53;;;;;;;6.88;5.82;;;30.80;70.10;;;;;;5029482;28;20034;-59
2021/07/30 05:09:19;;;;;;;7.25;5.78;;;31.70;68.00;;;;;;5024496;28;20053;-60
2021/07/30 05:11:45;;;;;;;6.45;5.70;;;32.60;66.20;;;;;;5019463;28;20056;-61
2021/07/30 05:14:10;;;;;;;5.97;5.32;;;33.30;64.10;;;;;;5023517;28;20022;-61
2021/07/30 05:16:36;;;;;;;7.22;5.55;;;33.90;62.70;;;;;;5020821;28;20071;-61
2021/07/30 05:19:02;;;;;;;5.97;5.35;;;34.40;61.00;;;;;;5020339;28;20736;-61
2021/07/30 05:21:28;;;;;;;7.75;5.78;;;35.00;60.00;;;;;;5022109;28;20469;-61
2021/07/30 05:23:53;;;;;;;7.13;5.32;;;35.30;58.80;;;;;;5023230;28;20523;-61
2021/07/30 05:26:19;;;;;;;6.00;5.40;;;35.70;57.90;;;;;;5021548;28;20489;-61
2021/07/30 05:28:44;;;;;;;6.50;5.53;;;36.10;56.90;;;;;;5025469;28;20381;-61
2021/07/30 05:31:18;;;;;;;6.05;5.43;;;36.30;56.00;;;;;;5026274;28;20080;-61
2021/07/30 05:33:44;;;;;;;7.25;5.85;;;36.40;55.20;;;;;;5025728;28;20052;-60
2021/07/30 05:36:15;;;;;;;7.55;5.95;;;36.30;54.30;;;;;;5021026;28;20029;-60
2021/07/30 05:38:40;;;;;;;6.95;5.43;;;36.00;54.60;;;;;;5019312;28;20025;-59
2021/07/30 05:41:11;;;;;;;6.72;6.10;;;35.40;55.10;;;;;;5022603;28;20072;-59
2021/07/30 05:43:38;;;;;;;8.40;6.43;;;34.80;55.90;;;;;;5024171;28;20034;-60
2021/07/30 05:46:04;;;;;;;7.88;6.22;;;34.10;56.70;;;;;;5024891;28;20025;-59
2021/07/30 05:48:30;;;;;;;6.70;6.10;;;33.50;57.60;;;;;;5025576;28;20122;-59
2021/07/30 05:50:56;;;;;;;7.95;6.53;;;32.90;58.50;;;;;;5024264;28;20029;-59
2021/07/30 05:53:21;;;;;;;8.23;5.95;;;32.30;59.40;;;;;;5020357;28;21868;-59
2021/07/30 05:55:47;;;;;;;7.05;6.25;;;31.90;60.40;;;;;;5026665;28;20048;-64
2021/07/30 05:58:12;;;;;;;6.85;6.18;;;31.50;60.80;;;;;;5026663;28;20425;-64
2021/07/30 06:00:38;;;;;;;7.72;6.93;;;31.20;61.10;;;;;;5027672;28;20041;-64
2021/07/30 06:03:04;;;;;;;7.45;6.55;;;30.90;61.60;;;;;;5023609;28;20116;-64
2021/07/30 06:05:30;;;;;;;7.07;6.38;;;30.70;62.00;;;;;;5022447;28;20048;-64
2021/07/30 06:07:59;;;;;;;7.50;6.72;;;30.50;62.10;;;;;;5022982;28;20036;-63
2021/07/30 06:10:26;;;;;;;7.20;6.50;;;30.40;62.90;;;;;;5025056;28;20037;-62
2021/07/30 06:12:52;;;;;;;7.93;7.13;;;30.20;63.30;;;;;;5022616;28;20037;-62
2021/07/30 06:15:23;;;;;;;8.48;7.10;;;30.10;63.60;;;;;;5026815;28;20041;-61
2021/07/30 06:17:48;;;;;;;;;;;30.00;63.80;;;;;;5029329;28;20029;-61
2021/07/30 06:20:14;;;;;;;6.47;5.88;;;29.80;64.00;;;;;;5024307;28;19948;-62
2021/07/30 06:22:40;;;;;;;7.68;6.63;;;29.70;64.40;;;;;;5017520;28;20037;-63
2021/07/30 06:25:07;;;;;;;8.45;6.97;;;29.60;64.60;;;;;;5020594;28;20095;-62
2021/07/30 06:27:35;;;;;;;7.78;7.00;;;29.50;65.20;;;;;;5015945;28;20034;-63
2021/07/30 06:30:03;;;;;;;7.43;6.60;;;29.50;65.20;;;;;;5022687;28;20059;-63
2021/07/30 06:32:28;;;;;;;8.05;7.25;;;29.40;65.50;;;;;;5017358;28;20026;-63
2021/07/30 06:34:54;;;;;;;8.10;6.88;;;29.30;65.30;;;;;;5022696;28;20106;-62
2021/07/30 06:37:20;;;;;;;7.50;6.70;;;29.30;65.30;;;;;;5021149;28;20032;-62
2021/07/30 06:39:45;;;;;;;6.70;6.10;;;29.30;65.30;;;;;;5024159;28;20030;-64
2021/07/30 06:42:11;;;;;;;7.35;6.55;;;29.20;65.00;;;;;;5020282;28;20038;-64
2021/07/30 06:44:36;;;;;;;6.95;6.20;;;29.20;64.90;;;;;;5021238;28;20534;-62
2021/07/30 06:47:03;;;;;;;7.20;6.10;;;29.20;64.50;;;;;;5020370;28;20037;-62
2021/07/30 06:49:29;;;;;;;8.25;6.40;;;29.10;64.40;;;;;;5016877;28;20026;-62
2021/07/30 06:51:54;;;;;;;6.57;5.88;;;29.10;64.10;;;;;;5018254;28;20123;-61
2021/07/30 06:54:20;;;;;;;6.55;5.95;;;29.10;64.00;;;;;;5016527;28;20042;-62
2021/07/30 06:56:46;;;;;;;6.93;6.22;;;29.00;64.00;;;;;;5014262;28;20037;-62
2021/07/30 06:59:12;;;;;;;6.80;6.10;;;29.00;63.90;;;;;;5016198;28;20025;-62
2021/07/30 07:01:38;;;;;;;7.18;6.47;;;29.00;63.80;;;;;;5017235;28;20115;-62
2021/07/30 07:04:04;;;;;;;10.65;7.05;;;28.90;63.70;;;;;;5011089;28;20817;-62
2021/07/30 07:06:30;;;;;;;7.15;6.45;;;28.90;63.70;;;;;;5005541;28;20048;-63
2021/07/30 07:08:58;;;;;;;8.38;6.35;;;28.90;63.80;;;;;;5014083;28;20034;-63
2021/07/30 07:11:24;;;;;;;7.05;6.35;;;28.90;63.80;;;;;;5016796;28;20037;-63
2021/07/30 07:13:51;;;;;;;6.82;6.13;;;28.90;63.80;;;;;;5010316;28;20025;-63
2021/07/30 07:16:22;;;;;;;6.93;6.22;;;28.90;63.70;;;;;;5016218;28;20080;-63
2021/07/30 07:18:48;;;;;;;7.10;6.40;;;28.90;63.80;;;;;;5019491;28;20539;-62
2021/07/30 07:21:14;;;;;;;7.07;6.38;;;28.90;63.80;;;;;;5017461;28;20025;-61
2021/07/30 07:23:41;;;;;;;6.30;5.68;;;28.90;63.70;;;;;;5013921;28;20059;-62
2021/07/30 07:26:06;;;;;;;7.00;6.40;;;28.80;63.80;;;;;;5011412;28;20436;-61
2021/07/30 07:28:32;;;;;;;8.23;7.00;;;28.80;63.90;;;;;;5009873;28;20029;-61
2021/07/30 07:30:58;;;;;;;7.47;6.15;;;28.80;64.10;;;;;;5020760;28;20034;-62
2021/07/30 07:33:23;;;;;;;7.05;6.35;;;28.70;64.30;;;;;;5014745;28;20921;-61
2021/07/30 07:35:49;;;;;;;7.93;6.05;;;28.70;64.20;;;;;;5012108;28;20038;-61
2021/07/30 07:38:15;;;;;;;8.85;6.43;;;28.70;64.10;;;;;;5018816;28;20055;-61
2021/07/30 07:40:44;;;;;;;7.43;6.43;;;28.70;64.40;;;;;;5014673;28;20040;-61
2021/07/30 07:43:09;;;;;;;7.05;6.28;;;28.70;64.50;;;;;;5011574;28;20740;-61
2021/07/30 07:45:35;;;;;;;7.50;6.55;;;28.70;64.40;;;;;;5008944;28;20044;-61
2021/07/30 07:48:01;;;;;;;7.32;6.28;;;28.70;64.40;;;;;;5021607;28;20100;-61
2021/07/30 07:50:26;;;;;;;7.95;6.80;;;28.70;64.50;;;;;;5020324;28;20650;-61
2021/07/30 07:52:52;;;;;;;7.22;6.40;;;28.70;64.50;;;;;;5019431;28;20038;-61
2021/07/30 07:55:17;;;;;;;7.95;6.07;;;28.70;64.30;;;;;;5007692;28;20053;-62
2021/07/30 07:57:43;;;;;;;7.03;6.32;;;28.70;64.20;;;;;;5014480;28;20418;-62
2021/07/30 08:00:10;;;;;;;7.38;6.20;;;28.70;64.10;;;;;;5009771;28;20030;-62
2021/07/30 08:02:35;;;;;;;7.25;6.28;;;28.60;64.10;;;;;;5008589;28;20026;-62
2021/07/30 08:05:01;;;;;;;6.72;6.03;;;28.60;64.00;;;;;;5010000;28;20033;-62
2021/07/30 08:07:27;;;;;;;6.40;5.78;;;28.60;64.00;;;;;;5009416;28;21258;-62
2021/07/30 08:09:52;;;;;;;6.90;6.20;;;28.60;64.10;;;;;;5006692;28;20030;-61
2021/07/30 08:12:19;;;;;;;6.63;5.93;;;28.60;64.10;;;;;;5006335;28;20429;-62
2021/07/30 08:14:45;;;;;;;7.05;6.20;;;28.60;64.00;;;;;;5009720;28;20053;-62
2021/07/30 08:17:10;;;;;;;6.43;5.72;;;28.50;64.10;;;;;;5010682;28;20124;-62
2021/07/30 08:19:36;;;;;;;7.30;6.55;;;28.50;64.00;;;;;;5007065;28;20574;-62
2021/07/30 08:22:04;;;;;;;6.10;5.50;;;28.50;64.40;;;;;;5007518;28;20030;-61
2021/07/30 08:24:30;;;;;;;7.03;5.95;;;28.50;64.20;;;;;;5008646;28;20131;-61
2021/07/30 08:26:55;;;;;;;6.35;5.72;;;28.50;64.00;;;;;;5011407;28;20037;-62
2021/07/30 08:29:21;;;;;;;5.72;5.22;;;28.50;64.70;;;;;;5014775;28;20040;-62
2021/07/30 08:31:47;;;;;;;6.40;5.70;;;28.50;64.00;;;;;;5010337;28;20049;-61
2021/07/30 08:34:13;;;;;;;6.25;5.65;;;28.50;63.90;;;;;;5013209;28;20038;-62
2021/07/30 08:36:39;;;;;;;7.30;5.82;;;28.40;63.70;;;;;;5010688;28;20050;-62
2021/07/30 08:39:05;;;;;;;7.15;6.00;;;28.40;63.80;;;;;;5013918;28;20025;-62
2021/07/30 08:41:30;;;;;;;7.03;6.10;;;28.40;63.60;;;;;;5012792;28;20150;-61
2021/07/30 08:43:56;;;;;;;6.07;5.47;;;28.30;63.30;;;;;;5014582;28;20037;-62
2021/07/30 08:46:26;;;;;;;6.20;5.60;;;28.30;63.20;;;;;;5015354;28;20495;-62
2021/07/30 08:48:53;;;;;;;6.05;5.45;;;28.30;63.40;;;;;;5017201;28;20041;-62
2021/07/30 08:51:20;;;;;;;7.10;5.55;;;28.30;63.20;;;;;;5019507;28;20050;-61
2021/07/30 08:53:46;;;;;;;6.63;5.75;;;28.20;63.40;;;;;;5022665;28;20038;-62
2021/07/30 08:56:13;;;;;;;6.28;5.68;;;28.20;63.20;;;;;;5013179;28;20389;-62
2021/07/30 08:58:39;;;;;;;6.05;5.45;;;28.20;63.30;;;;;;5015489;28;20025;-62
2021/07/30 09:01:05;;;;;;;6.65;6.00;;;28.20;63.30;;;;;;5022507;28;20128;-62
2021/07/30 09:03:41;;;;;;;7.05;5.00;;;28.20;63.40;;;;;;5020041;28;21394;-61
2021/07/30 09:06:21;;;;;;;7.55;6.35;;;28.10;63.30;;;;;;5022314;28;20550;-62
2021/07/30 09:08:56;;;;;;;5.85;5.22;;;28.10;63.40;;;;;;5021134;28;20036;-62
2021/07/30 09:11:39;;;;;;;6.72;5.90;;;28.10;63.40;;;;;;5017971;28;20038;-62
2021/07/30 09:14:07;;;;;;;6.43;5.75;;;28.00;63.30;;;;;;5014612;28;20034;-62
2021/07/30 09:16:53;;;;;;;6.25;5.65;;;28.00;63.30;;;;;;5014683;28;20075;-61
2021/07/30 09:19:19;;;;;;;6.47;5.88;;;28.00;63.50;;;;;;5018298;28;20028;-62
2021/07/30 09:21:45;;;;;;;6.20;5.60;;;28.00;63.40;;;;;;5020498;28;20033;-62
2021/07/30 09:24:19;;;;;;;6.70;6.00;;;27.90;63.50;;;;;;5017546;28;20377;-61
2021/07/30 09:26:55;;;;;;;6.63;6.00;;;27.90;63.50;;;;;;5011418;28;20281;-61
2021/07/30 09:29:26;;;;;;;6.85;5.53;;;27.90;63.60;;;;;;5013972;28;20030;-63
2021/07/30 09:31:54;;;;;;;6.20;5.60;;;27.90;63.80;;;;;;5012212;28;20029;-63
2021/07/30 09:34:31;;;;;;;6.57;5.93;;;27.90;63.70;;;;;;5009896;28;20410;-63
2021/07/30 09:37:04;;;;;;;7.72;5.82;;;27.90;63.70;;;;;;5018954;28;20037;-63
2021/07/30 09:39:37;;;;;;;6.22;5.63;;;27.90;63.90;;;;;;5016163;28;20657;-61
2021/07/30 09:42:17;;;;;;;6.38;5.75;;;27.90;63.80;;;;;;5021815;28;20030;-62
2021/07/30 09:44:51;;;;;;;6.13;5.20;;;27.90;63.80;;;;;;5023954;28;20512;-62
2021/07/30 09:47:22;;;;;;;7.80;6.30;;;27.80;63.80;;;;;;5016334;28;20037;-61
2021/07/30 09:49:55;;;;;;;7.10;5.85;;;27.80;63.80;;;;;;5022627;28;20183;-63
2021/07/30 09:52:22;;;;;;;6.95;6.22;;;27.90;64.00;;;;;;5017175;28;20745;-61
2021/07/30 09:55:22;;;;;;;6.72;6.07;;;27.80;64.00;;;;;;5018372;28;20025;-64
2021/07/30 09:57:50;;;;;;;6.25;5.65;;;27.80;64.30;;;;;;5029126;28;20523;-63
2021/07/30 10:00:16;;;;;;;6.38;5.78;;;27.80;64.00;;;;;;5017549;28;20029;-62
2021/07/30 10:02:44;;;;;;;8.93;6.70;;;27.80;63.90;;;;;;5015256;28;20033;-61
2021/07/30 10:05:10;;;;;;;7.40;6.65;;;27.80;64.10;;;;;;5017526;28;20037;-62
2021/07/30 10:07:38;;;;;;;6.30;5.70;;;27.80;64.20;;;;;;5015561;28;20442;-61
2021/07/30 10:10:28;;;;;;;7.35;5.45;;;27.80;64.00;;;;;;5014046;28;20021;-61
2021/07/30 10:12:55;;;;;;;6.95;6.22;;;27.80;63.80;;;;;;5015988;28;20026;-61
2021/07/30 10:15:21;;;;;;;7.53;6.28;;;27.80;63.90;;;;;;5008756;28;20754;-61
2021/07/30 10:17:49;;;;;;;6.63;5.80;;;27.80;63.90;;;;;;5014294;28;20037;-61
2021/07/30 10:20:17;;;;;;;7.10;6.40;;;27.80;63.70;;;;;;5014133;28;20033;-61
2021/07/30 10:22:57;;;;;;;6.85;6.18;;;27.70;63.50;;;;;;5019679;28;20053;-61
2021/07/30 10:25:24;;;;;;;6.25;5.55;;;27.70;63.30;;;;;;5021773;28;20115;-61
2021/07/30 10:27:58;;;;;;;7.07;6.38;;;27.70;63.30;;;;;;5018949;28;20034;-61
2021/07/30 10:30:24;;;;;;;6.38;5.72;;;27.70;63.20;;;;;;5019926;28;20049;-61
2021/07/30 10:32:56;;;;;;;6.43;5.78;;;27.70;63.20;;;;;;5017347;28;20457;-62
2021/07/30 10:35:28;;;;;;;7.20;5.95;;;27.70;63.20;;;;;;5016886;28;20030;-61
2021/07/30 10:38:16;;;;;;;6.32;5.68;;;27.70;63.20;;;;;;5022911;28;20021;-62
2021/07/30 10:41:03;;;;;;;6.03;5.43;;;27.70;63.00;;;;;;5021904;28;20033;-61
2021/07/30 10:43:33;;;;;;;6.43;5.82;;;27.70;63.00;;;;;;5020165;28;20551;-61
2021/07/30 10:46:04;;;;;;;6.55;5.90;;;27.70;63.20;;;;;;5017703;28;20547;-62
2021/07/30 10:48:31;;;;;;;6.20;5.60;;;27.60;63.10;;;;;;5019998;28;20099;-61
2021/07/30 10:51:01;;;;;;;6.45;5.85;;;27.60;63.10;;;;;;5013059;28;20048;-61
2021/07/30 10:53:39;;;;;;;6.65;6.05;;;27.60;63.30;;;;;;5023587;28;20056;-60
2021/07/30 10:56:07;;;;;;;6.28;5.68;;;27.60;63.20;;;;;;5018619;28;20393;-61
2021/07/30 10:58:44;;;;;;;6.22;5.63;;;27.60;63.20;;;;;;5021031;28;20021;-61
2021/07/30 11:01:15;;;;;;;7.72;5.63;;;27.60;63.20;;;;;;5017604;28;20026;-63
2021/07/30 11:03:52;;;;;;;6.45;5.85;;;27.60;63.60;;;;;;5019076;28;20018;-62
2021/07/30 11:06:19;;;;;;;6.28;5.68;;;27.60;63.30;;;;;;5017693;28;20044;-60
2021/07/30 11:09:06;;;;;;;7.30;6.35;;;27.60;63.40;;;;;;5019875;28;20145;-65
2021/07/30 11:12:02;;;;;;;7.70;6.40;;;27.60;63.40;;;;;;5021520;28;20056;-62
2021/07/30 11:14:36;;;;;;;6.50;5.90;;;27.60;63.50;;;;;;5018841;28;20163;-63
2021/07/30 11:17:07;;;;;;;6.78;6.10;;;27.60;63.70;;;;;;5019722;28;20123;-62
2021/07/30 11:19:34;;;;;;;6.65;5.97;;;27.60;63.80;;;;;;5024268;28;20028;-62
2021/07/30 11:22:02;;;;;;;7.22;6.38;;;27.60;63.70;;;;;;5011661;28;20038;-62
2021/07/30 11:24:27;;;;;;;6.25;5.65;;;27.60;63.70;;;;;;5020236;28;20180;-63
2021/07/30 11:26:53;;;;;;;6.75;5.88;;;27.60;63.90;;;;;;5019986;28;20128;-63
2021/07/30 11:29:21;;;;;;;6.68;6.07;;;27.60;63.70;;;;;;5021394;28;20037;-63
2021/07/30 11:31:58;;;;;;;8.13;6.57;;;27.60;63.60;;;;;;5017626;28;20041;-62
2021/07/30 11:34:49;;;;;;;6.60;5.82;;;27.60;63.90;;;;;;5014697;28;20044;-64
2021/07/30 11:37:17;;;;;;;6.78;6.03;;;27.60;63.80;;;;;;5019469;28;20052;-62
2021/07/30 11:39:48;;;;;;;6.55;5.95;;;27.60;63.80;;;;;;5021426;28;20038;-61
2021/07/30 11:42:30;;;;;;;7.68;6.93;;;27.60;64.00;;;;;;5020041;28;20120;-62
2021/07/30 11:45:04;;;;;;;6.53;5.93;;;27.60;63.90;;;;;;5019895;28;20031;-62
2021/07/30 11:47:32;;;;;;;6.68;5.65;;;27.70;63.80;;;;;;5018914;28;22180;-62
2021/07/30 11:50:15;;;;;;;7.40;6.45;;;27.60;63.80;;;;;;5021706;28;20068;-62
2021/07/30 11:52:42;;;;;;;7.00;6.30;;;27.70;63.80;;;;;;5017475;28;20034;-63
2021/07/30 11:55:11;;;;;;;7.55;6.55;;;27.70;63.70;;;;;;5019586;28;20021;-62
2021/07/30 11:57:37;;;;;;;7.70;6.40;;;27.70;63.60;;;;;;5020411;28;20513;-60
2021/07/30 12:00:05;;;;;;;7.20;6.57;;;27.70;63.30;;;;;;5019282;28;20030;-62
2021/07/30 12:02:31;;;;;;;6.55;5.88;;;27.70;63.30;;;;;;5018678;28;20400;-62
2021/07/30 12:04:58;;;;;;;6.47;5.43;;;27.70;63.20;;;;;;5019013;28;20026;-63
2021/07/30 12:07:36;;;;;;;7.18;6.47;;;27.70;63.10;;;;;;5019269;28;20122;-62
2021/07/30 12:10:05;;;;;;;7.10;6.40;;;27.70;63.00;;;;;;5020336;28;20034;-62
2021/07/30 12:12:38;;;;;;;6.70;6.00;;;27.70;62.90;;;;;;5018791;28;20037;-64
2021/07/30 12:15:05;;;;;;;7.70;6.32;;;27.70;62.60;;;;;;5014273;28;20033;-61
2021/07/30 12:17:32;;;;;;;7.13;6.22;;;27.70;62.50;;;;;;5019140;28;20033;-63
2021/07/30 12:20:10;;;;;;;7.13;6.43;;;27.70;62.60;;;;;;5022358;28;20069;-63
2021/07/30 12:22:45;;;;;;;7.18;6.47;;;27.70;62.60;;;;;;5016758;28;20073;-62
2021/07/30 12:25:16;;;;;;;8.32;5.82;;;27.70;62.30;;;;;;5017950;28;20082;-62
2021/07/30 12:27:42;;;;;;;7.10;5.53;;;27.70;62.00;;;;;;5023139;28;20030;-62
2021/07/30 12:30:23;;;;;;;7.18;6.47;;;27.70;61.80;;;;;;5022560;28;20034;-64
2021/07/30 12:32:49;;;;;;;7.07;5.90;;;27.70;61.80;;;;;;5020743;28;20034;-62
2021/07/30 12:35:16;;;;;;;6.85;6.22;;;27.70;61.80;;;;;;5020483;28;20048;-62
2021/07/30 12:38:06;;;;;;;6.40;5.78;;;27.70;61.70;;;;;;5021494;28;20113;-62
2021/07/30 12:40:33;;;;;;;7.77;6.40;;;27.70;61.80;;;;;;5019674;28;20075;-64
2021/07/30 12:43:11;;;;;;;6.55;5.95;;;27.70;61.80;;;;;;5015161;28;20025;-62
2021/07/30 12:45:45;;;;;;;6.40;5.80;;;27.70;61.60;;;;;;5012096;28;20033;-65
2021/07/30 12:48:22;;;;;;;7.50;5.57;;;27.70;61.50;;;;;;5013609;28;20893;-63
2021/07/30 12:50:50;;;;;;;6.65;5.82;;;27.70;61.60;;;;;;5010333;28;20037;-60
2021/07/30 12:53:17;;;;;;;6.25;5.68;;;27.70;61.50;;;;;;5015419;28;20062;-60
2021/07/30 12:56:01;;;;;;;6.30;4.90;;;27.70;61.50;;;;;;5012997;28;20044;-59